Terminal Aerodrome Forecast
Issued by NWS

Home | Current Version | Previous Version | Text Only | Print | Product List | Glossary On
Versions: 1 2 3 4 5 6 7 8 9 10 11 12 13 14 15
000
FTUS42 KMHX 300500 RRA
TAFOAJ
TAF
KOAJ 300541Z 3006/3106 04003KT 6SM BR BKN100
     FM300700 VRB02KT 4SM BR SCT003
     FM301000 00000KT 1SM BR OVC002
     FM301300 15007KT P6SM SCT040
     FM310100 17003KT P6SM SKC
      AMD LTD TO CLD VIS AND WIND=

USA.gov is the U.S. government's official web portal to all federal, state and local government web resources and services.